sensor_id;sensor_type;location;lat;lon;timestamp;temperature;humidity
10583;DHT22;33679;51.218;6.786;2023-07-16T00:01:35;24.50;99.90
10583;DHT22;33679;51.218;6.786;2023-07-16T00:04:12;24.50;99.90
10583;DHT22;33679;51.218;6.786;2023-07-16T00:06:47;24.50;99.90
10583;DHT22;33679;51.218;6.786;2023-07-16T00:09:21;24.50;99.90
10583;DHT22;33679;51.218;6.786;2023-07-16T00:11:58;24.50;99.90
10583;DHT22;33679;51.218;6.786;2023-07-16T00:14:32;24.50;99.90
10583;DHT22;33679;51.218;6.786;2023-07-16T00:17:04;24.50;99.90
10583;DHT22;33679;51.218;6.786;2023-07-16T00:19:37;24.50;99.90
10583;DHT22;33679;51.218;6.786;2023-07-16T00:22:09;24.40;99.90
10583;DHT22;33679;51.218;6.786;2023-07-16T00:24:46;24.30;99.90
10583;DHT22;33679;51.218;6.786;2023-07-16T00:27:21;24.20;99.90
10583;DHT22;33679;51.218;6.786;2023-07-16T00:29:57;24.20;99.90
10583;DHT22;33679;51.218;6.786;2023-07-16T00:32:30;24.10;99.90
10583;DHT22;33679;51.218;6.786;2023-07-16T00:35:03;24.00;99.90
10583;DHT22;33679;51.218;6.786;2023-07-16T00:37:36;23.90;99.90
10583;DHT22;33679;51.218;6.786;2023-07-16T00:40:12;23.90;99.90
10583;DHT22;33679;51.218;6.786;2023-07-16T00:42:44;23.90;99.90
10583;DHT22;33679;51.218;6.786;2023-07-16T00:45:18;23.90;99.90
10583;DHT22;33679;51.218;6.786;2023-07-16T00:47:51;23.80;99.90
10583;DHT22;33679;51.218;6.786;2023-07-16T00:50:24;23.90;99.90
10583;DHT22;33679;51.218;6.786;2023-07-16T00:52:57;23.80;99.90
10583;DHT22;33679;51.218;6.786;2023-07-16T00:55:30;23.80;99.90
10583;DHT22;33679;51.218;6.786;2023-07-16T00:58:05;23.70;99.90
10583;DHT22;33679;51.218;6.786;2023-07-16T01:00:41;23.70;99.90
10583;DHT22;33679;51.218;6.786;2023-07-16T01:03:14;23.70;99.90
10583;DHT22;33679;51.218;6.786;2023-07-16T01:05:51;23.60;99.90
10583;DHT22;33679;51.218;6.786;2023-07-16T01:08:31;23.60;99.90
10583;DHT22;33679;51.218;6.786;2023-07-16T01:11:04;23.70;99.90
10583;DHT22;33679;51.218;6.786;2023-07-16T01:13:38;23.60;99.90
10583;DHT22;33679;51.218;6.786;2023-07-16T01:16:20;23.60;99.90
10583;DHT22;33679;51.218;6.786;2023-07-16T01:18:52;23.60;99.90
10583;DHT22;33679;51.218;6.786;2023-07-16T01:21:28;23.70;99.90
10583;DHT22;33679;51.218;6.786;2023-07-16T01:24:21;23.70;99.90
10583;DHT22;33679;51.218;6.786;2023-07-16T01:27:17;23.80;99.90
10583;DHT22;33679;51.218;6.786;2023-07-16T01:29:51;23.80;99.90
10583;DHT22;33679;51.218;6.786;2023-07-16T01:32:28;23.80;99.90
10583;DHT22;33679;51.218;6.786;2023-07-16T01:35:06;23.90;99.90
10583;DHT22;33679;51.218;6.786;2023-07-16T01:37:43;23.90;99.90
10583;DHT22;33679;51.218;6.786;2023-07-16T01:40:23;23.90;99.90
10583;DHT22;33679;51.218;6.786;2023-07-16T01:42:56;23.90;99.90
10583;DHT22;33679;51.218;6.786;2023-07-16T01:45:30;23.90;99.90
10583;DHT22;33679;51.218;6.786;2023-07-16T01:48:09;23.90;99.90
10583;DHT22;33679;51.218;6.786;2023-07-16T01:50:47;24.00;99.90
10583;DHT22;33679;51.218;6.786;2023-07-16T01:53:20;24.00;99.90
10583;DHT22;33679;51.218;6.786;2023-07-16T01:55:52;24.00;99.90
10583;DHT22;33679;51.218;6.786;2023-07-16T01:58:25;24.00;99.90
10583;DHT22;33679;51.218;6.786;2023-07-16T02:00:59;23.90;99.90
10583;DHT22;33679;51.218;6.786;2023-07-16T02:03:33;23.90;99.90
10583;DHT22;33679;51.218;6.786;2023-07-16T02:06:09;23.80;99.90
10583;DHT22;33679;51.218;6.786;2023-07-16T02:08:41;23.80;99.90
10583;DHT22;33679;51.218;6.786;2023-07-16T02:11:13;23.70;99.90
10583;DHT22;33679;51.218;6.786;2023-07-16T02:13:49;23.60;99.90
10583;DHT22;33679;51.218;6.786;2023-07-16T02:16:23;23.60;99.90
10583;DHT22;33679;51.218;6.786;2023-07-16T02:18:59;23.60;99.90
10583;DHT22;33679;51.218;6.786;2023-07-16T02:21:31;23.60;99.90
10583;DHT22;33679;51.218;6.786;2023-07-16T02:24:06;23.50;99.90
10583;DHT22;33679;51.218;6.786;2023-07-16T02:26:40;23.50;99.90
10583;DHT22;33679;51.218;6.786;2023-07-16T02:29:16;23.50;99.90
10583;DHT22;33679;51.218;6.786;2023-07-16T02:31:50;23.40;99.90
10583;DHT22;33679;51.218;6.786;2023-07-16T02:34:23;23.40;99.90
10583;DHT22;33679;51.218;6.786;2023-07-16T02:36:55;23.40;99.90
10583;DHT22;33679;51.218;6.786;2023-07-16T02:39:28;23.40;99.90
10583;DHT22;33679;51.218;6.786;2023-07-16T02:42:00;23.40;99.90
10583;DHT22;33679;51.218;6.786;2023-07-16T02:44:32;23.30;99.90
10583;DHT22;33679;51.218;6.786;2023-07-16T02:47:06;23.30;99.90
10583;DHT22;33679;51.218;6.786;2023-07-16T02:49:38;23.30;99.90
10583;DHT22;33679;51.218;6.786;2023-07-16T02:52:11;23.20;99.90
10583;DHT22;33679;51.218;6.786;2023-07-16T02:54:45;23.10;99.90
10583;DHT22;33679;51.218;6.786;2023-07-16T02:57:17;23.10;99.90
10583;DHT22;33679;51.218;6.786;2023-07-16T02:59:49;23.00;99.90
10583;DHT22;33679;51.218;6.786;2023-07-16T03:02:23;23.00;99.90
10583;DHT22;33679;51.218;6.786;2023-07-16T03:04:55;22.90;99.90
10583;DHT22;33679;51.218;6.786;2023-07-16T03:07:27;22.80;99.90
10583;DHT22;33679;51.218;6.786;2023-07-16T03:10:00;22.70;99.90
10583;DHT22;33679;51.218;6.786;2023-07-16T03:12:32;22.70;99.90
10583;DHT22;33679;51.218;6.786;2023-07-16T03:15:06;22.70;99.90
10583;DHT22;33679;51.218;6.786;2023-07-16T03:17:40;22.70;99.90
10583;DHT22;33679;51.218;6.786;2023-07-16T03:20:13;22.60;99.90
10583;DHT22;33679;51.218;6.786;2023-07-16T03:22:45;22.60;99.90
10583;DHT22;33679;51.218;6.786;2023-07-16T03:25:18;22.60;99.90
10583;DHT22;33679;51.218;6.786;2023-07-16T03:27:50;22.50;99.90
10583;DHT22;33679;51.218;6.786;2023-07-16T03:30:24;22.50;99.90
10583;DHT22;33679;51.218;6.786;2023-07-16T03:32:58;22.40;99.90
10583;DHT22;33679;51.218;6.786;2023-07-16T03:35:30;22.40;99.90
10583;DHT22;33679;51.218;6.786;2023-07-16T03:38:03;22.50;99.90
10583;DHT22;33679;51.218;6.786;2023-07-16T03:40:39;22.50;99.90
10583;DHT22;33679;51.218;6.786;2023-07-16T03:43:12;22.50;99.90
10583;DHT22;33679;51.218;6.786;2023-07-16T03:45:45;22.50;99.90
10583;DHT22;33679;51.218;6.786;2023-07-16T03:48:19;22.50;99.90
10583;DHT22;33679;51.218;6.786;2023-07-16T03:50:51;22.60;99.90
10583;DHT22;33679;51.218;6.786;2023-07-16T03:53:25;22.60;99.90
10583;DHT22;33679;51.218;6.786;2023-07-16T03:55:58;22.50;99.90
10583;DHT22;33679;51.218;6.786;2023-07-16T03:58:30;22.50;99.90
10583;DHT22;33679;51.218;6.786;2023-07-16T04:01:03;22.50;99.90
10583;DHT22;33679;51.218;6.786;2023-07-16T04:03:36;22.40;99.90
10583;DHT22;33679;51.218;6.786;2023-07-16T04:06:13;22.40;99.90
10583;DHT22;33679;51.218;6.786;2023-07-16T04:08:49;22.30;99.90
10583;DHT22;33679;51.218;6.786;2023-07-16T04:11:21;22.30;99.90
10583;DHT22;33679;51.218;6.786;2023-07-16T04:13:54;22.30;99.90
10583;DHT22;33679;51.218;6.786;2023-07-16T04:16:26;22.30;99.90
10583;DHT22;33679;51.218;6.786;2023-07-16T04:19:00;22.40;99.90
10583;DHT22;33679;51.218;6.786;2023-07-16T04:21:32;22.50;99.90
10583;DHT22;33679;51.218;6.786;2023-07-16T04:24:06;22.50;99.90
10583;DHT22;33679;51.218;6.786;2023-07-16T04:26:38;22.50;99.90
10583;DHT22;33679;51.218;6.786;2023-07-16T04:29:10;22.60;99.90
10583;DHT22;33679;51.218;6.786;2023-07-16T04:31:43;22.60;99.90
10583;DHT22;33679;51.218;6.786;2023-07-16T04:34:18;22.60;99.90
10583;DHT22;33679;51.218;6.786;2023-07-16T04:36:50;22.70;99.90
10583;DHT22;33679;51.218;6.786;2023-07-16T04:39:22;22.70;99.90
10583;DHT22;33679;51.218;6.786;2023-07-16T04:41:54;22.70;99.90
10583;DHT22;33679;51.218;6.786;2023-07-16T04:44:26;22.70;99.90
10583;DHT22;33679;51.218;6.786;2023-07-16T04:46:59;22.80;99.90
10583;DHT22;33679;51.218;6.786;2023-07-16T04:49:35;22.90;99.90
10583;DHT22;33679;51.218;6.786;2023-07-16T04:52:08;22.90;99.90
10583;DHT22;33679;51.218;6.786;2023-07-16T04:54:40;22.90;99.90
10583;DHT22;33679;51.218;6.786;2023-07-16T04:57:13;22.90;99.90
10583;DHT22;33679;51.218;6.786;2023-07-16T04:59:45;23.00;99.90
10583;DHT22;33679;51.218;6.786;2023-07-16T05:02:17;23.10;99.90
10583;DHT22;33679;51.218;6.786;2023-07-16T05:04:51;23.10;99.90
10583;DHT22;33679;51.218;6.786;2023-07-16T05:07:23;23.20;99.90
10583;DHT22;33679;51.218;6.786;2023-07-16T05:09:55;23.20;99.90
10583;DHT22;33679;51.218;6.786;2023-07-16T05:12:31;23.20;99.90
10583;DHT22;33679;51.218;6.786;2023-07-16T05:15:04;23.20;99.90
10583;DHT22;33679;51.218;6.786;2023-07-16T05:17:36;23.20;99.90
10583;DHT22;33679;51.218;6.786;2023-07-16T05:20:11;23.30;99.90
10583;DHT22;33679;51.218;6.786;2023-07-16T05:22:43;23.30;99.90
10583;DHT22;33679;51.218;6.786;2023-07-16T05:25:15;23.40;99.90
10583;DHT22;33679;51.218;6.786;2023-07-16T05:27:47;23.40;99.90
10583;DHT22;33679;51.218;6.786;2023-07-16T05:30:20;23.40;99.90
10583;DHT22;33679;51.218;6.786;2023-07-16T05:32:52;23.40;99.90
10583;DHT22;33679;51.218;6.786;2023-07-16T05:35:28;23.40;99.90
10583;DHT22;33679;51.218;6.786;2023-07-16T05:38:00;23.40;99.90
10583;DHT22;33679;51.218;6.786;2023-07-16T05:40:33;23.50;99.90
10583;DHT22;33679;51.218;6.786;2023-07-16T05:43:05;23.50;99.90
10583;DHT22;33679;51.218;6.786;2023-07-16T05:45:37;23.50;99.90
10583;DHT22;33679;51.218;6.786;2023-07-16T05:48:11;23.50;99.90
10583;DHT22;33679;51.218;6.786;2023-07-16T05:50:45;23.60;99.90
10583;DHT22;33679;51.218;6.786;2023-07-16T05:53:18;23.70;99.90
10583;DHT22;33679;51.218;6.786;2023-07-16T05:55:50;24.00;99.90
10583;DHT22;33679;51.218;6.786;2023-07-16T05:58:23;24.70;99.90
10583;DHT22;33679;51.218;6.786;2023-07-16T06:00:55;25.80;99.90
10583;DHT22;33679;51.218;6.786;2023-07-16T06:03:27;26.90;99.90
10583;DHT22;33679;51.218;6.786;2023-07-16T06:06:01;27.90;99.90
10583;DHT22;33679;51.218;6.786;2023-07-16T06:08:34;29.10;99.90
10583;DHT22;33679;51.218;6.786;2023-07-16T06:11:06;30.20;99.90
10583;DHT22;33679;51.218;6.786;2023-07-16T06:13:38;31.10;99.90
10583;DHT22;33679;51.218;6.786;2023-07-16T06:16:11;31.90;99.90
10583;DHT22;33679;51.218;6.786;2023-07-16T06:18:43;32.50;99.90
10583;DHT22;33679;51.218;6.786;2023-07-16T06:21:17;32.60;99.10
10583;DHT22;33679;51.218;6.786;2023-07-16T06:23:49;32.30;98.80
10583;DHT22;33679;51.218;6.786;2023-07-16T06:26:22;31.80;98.60
10583;DHT22;33679;51.218;6.786;2023-07-16T06:28:54;31.10;98.40
10583;DHT22;33679;51.218;6.786;2023-07-16T06:31:26;30.40;99.10
10583;DHT22;33679;51.218;6.786;2023-07-16T06:34:00;29.70;99.50
10583;DHT22;33679;51.218;6.786;2023-07-16T06:36:34;29.00;99.90
10583;DHT22;33679;51.218;6.786;2023-07-16T06:39:07;28.50;99.90
10583;DHT22;33679;51.218;6.786;2023-07-16T06:41:41;27.90;99.90
10583;DHT22;33679;51.218;6.786;2023-07-16T06:44:15;27.50;99.90
10583;DHT22;33679;51.218;6.786;2023-07-16T06:46:47;27.10;99.90
10583;DHT22;33679;51.218;6.786;2023-07-16T06:49:21;26.70;99.90
10583;DHT22;33679;51.218;6.786;2023-07-16T06:51:54;26.40;99.90
10583;DHT22;33679;51.218;6.786;2023-07-16T06:54:29;26.20;99.90
10583;DHT22;33679;51.218;6.786;2023-07-16T06:57:05;26.00;99.90
10583;DHT22;33679;51.218;6.786;2023-07-16T06:59:45;25.80;99.90
10583;DHT22;33679;51.218;6.786;2023-07-16T07:02:22;25.50;99.90
10583;DHT22;33679;51.218;6.786;2023-07-16T07:04:54;25.40;99.90
10583;DHT22;33679;51.218;6.786;2023-07-16T07:07:31;25.20;99.90
10583;DHT22;33679;51.218;6.786;2023-07-16T07:10:07;25.10;99.90
10583;DHT22;33679;51.218;6.786;2023-07-16T07:12:39;24.90;99.90
10583;DHT22;33679;51.218;6.786;2023-07-16T07:15:12;24.80;99.90
10583;DHT22;33679;51.218;6.786;2023-07-16T07:17:45;24.70;99.90
10583;DHT22;33679;51.218;6.786;2023-07-16T07:20:17;24.70;99.90
10583;DHT22;33679;51.218;6.786;2023-07-16T07:22:51;24.60;99.90
10583;DHT22;33679;51.218;6.786;2023-07-16T07:25:23;24.50;99.90
10583;DHT22;33679;51.218;6.786;2023-07-16T07:27:55;24.40;99.90
10583;DHT22;33679;51.218;6.786;2023-07-16T07:30:28;24.40;99.90
10583;DHT22;33679;51.218;6.786;2023-07-16T07:33:00;24.40;99.90
10583;DHT22;33679;51.218;6.786;2023-07-16T07:35:32;24.30;99.90
10583;DHT22;33679;51.218;6.786;2023-07-16T07:38:06;24.30;99.90
10583;DHT22;33679;51.218;6.786;2023-07-16T07:40:38;24.30;99.90
10583;DHT22;33679;51.218;6.786;2023-07-16T07:43:10;24.30;99.90
10583;DHT22;33679;51.218;6.786;2023-07-16T07:45:44;24.30;99.90
10583;DHT22;33679;51.218;6.786;2023-07-16T07:48:16;24.30;99.90
10583;DHT22;33679;51.218;6.786;2023-07-16T07:50:49;24.30;99.90
10583;DHT22;33679;51.218;6.786;2023-07-16T07:53:23;24.30;99.90
10583;DHT22;33679;51.218;6.786;2023-07-16T07:55:55;24.30;99.90
10583;DHT22;33679;51.218;6.786;2023-07-16T07:58:27;24.20;99.90
10583;DHT22;33679;51.218;6.786;2023-07-16T08:01:04;24.20;99.90
10583;DHT22;33679;51.218;6.786;2023-07-16T08:03:38;24.30;99.90
10583;DHT22;33679;51.218;6.786;2023-07-16T08:06:11;24.30;99.90
10583;DHT22;33679;51.218;6.786;2023-07-16T08:08:47;24.20;99.90
10583;DHT22;33679;51.218;6.786;2023-07-16T08:11:21;24.30;99.90
10583;DHT22;33679;51.218;6.786;2023-07-16T08:13:53;24.30;99.90
10583;DHT22;33679;51.218;6.786;2023-07-16T08:16:25;24.30;99.90
10583;DHT22;33679;51.218;6.786;2023-07-16T08:18:58;24.30;99.90
10583;DHT22;33679;51.218;6.786;2023-07-16T08:21:32;24.40;99.90
10583;DHT22;33679;51.218;6.786;2023-07-16T08:24:06;24.50;99.90
10583;DHT22;33679;51.218;6.786;2023-07-16T08:26:39;24.50;99.90
10583;DHT22;33679;51.218;6.786;2023-07-16T08:29:12;24.50;99.90
10583;DHT22;33679;51.218;6.786;2023-07-16T08:31:44;24.50;99.90
10583;DHT22;33679;51.218;6.786;2023-07-16T08:34:17;24.50;99.90
10583;DHT22;33679;51.218;6.786;2023-07-16T08:36:54;24.70;99.90
10583;DHT22;33679;51.218;6.786;2023-07-16T08:39:28;24.80;99.90
10583;DHT22;33679;51.218;6.786;2023-07-16T08:42:01;24.90;99.90
10583;DHT22;33679;51.218;6.786;2023-07-16T08:44:37;24.90;99.90
10583;DHT22;33679;51.218;6.786;2023-07-16T08:47:10;25.00;99.90
10583;DHT22;33679;51.218;6.786;2023-07-16T08:49:53;25.10;99.90
10583;DHT22;33679;51.218;6.786;2023-07-16T08:52:29;25.30;99.90
10583;DHT22;33679;51.218;6.786;2023-07-16T08:55:04;25.40;99.90
10583;DHT22;33679;51.218;6.786;2023-07-16T08:57:36;25.40;99.90
10583;DHT22;33679;51.218;6.786;2023-07-16T09:00:10;25.40;99.90
10583;DHT22;33679;51.218;6.786;2023-07-16T09:02:43;25.50;99.90
10583;DHT22;33679;51.218;6.786;2023-07-16T09:05:20;25.40;99.90
10583;DHT22;33679;51.218;6.786;2023-07-16T09:07:52;25.40;99.90
10583;DHT22;33679;51.218;6.786;2023-07-16T09:10:26;25.40;99.90
10583;DHT22;33679;51.218;6.786;2023-07-16T09:12:59;25.40;99.90
10583;DHT22;33679;51.218;6.786;2023-07-16T09:15:31;25.50;99.90
10583;DHT22;33679;51.218;6.786;2023-07-16T09:18:05;25.60;99.90
10583;DHT22;33679;51.218;6.786;2023-07-16T09:20:41;25.60;99.90
10583;DHT22;33679;51.218;6.786;2023-07-16T09:23:17;25.60;99.90
10583;DHT22;33679;51.218;6.786;2023-07-16T09:25:51;25.60;99.90
10583;DHT22;33679;51.218;6.786;2023-07-16T09:28:23;25.70;99.90
10583;DHT22;33679;51.218;6.786;2023-07-16T09:31:03;25.70;99.90
10583;DHT22;33679;51.218;6.786;2023-07-16T09:33:37;25.70;99.90
10583;DHT22;33679;51.218;6.786;2023-07-16T09:36:10;25.60;99.90
10583;DHT22;33679;51.218;6.786;2023-07-16T09:38:43;25.50;99.90
10583;DHT22;33679;51.218;6.786;2023-07-16T09:41:17;25.50;99.90
10583;DHT22;33679;51.218;6.786;2023-07-16T09:43:51;25.60;99.90
10583;DHT22;33679;51.218;6.786;2023-07-16T09:46:25;25.60;99.90
10583;DHT22;33679;51.218;6.786;2023-07-16T09:48:59;25.60;99.90
10583;DHT22;33679;51.218;6.786;2023-07-16T09:51:33;25.60;99.90
10583;DHT22;33679;51.218;6.786;2023-07-16T09:54:06;25.70;99.90
10583;DHT22;33679;51.218;6.786;2023-07-16T09:56:45;25.70;99.90
10583;DHT22;33679;51.218;6.786;2023-07-16T09:59:22;25.80;99.90
10583;DHT22;33679;51.218;6.786;2023-07-16T10:01:56;25.80;99.90
10583;DHT22;33679;51.218;6.786;2023-07-16T10:04:38;25.80;99.90
10583;DHT22;33679;51.218;6.786;2023-07-16T10:07:19;25.80;99.90
10583;DHT22;33679;51.218;6.786;2023-07-16T10:09:56;25.90;99.90
10583;DHT22;33679;51.218;6.786;2023-07-16T10:12:30;26.00;99.90
10583;DHT22;33679;51.218;6.786;2023-07-16T10:15:04;26.20;99.90
10583;DHT22;33679;51.218;6.786;2023-07-16T10:17:37;26.30;99.90
10583;DHT22;33679;51.218;6.786;2023-07-16T10:20:10;26.30;99.90
10583;DHT22;33679;51.218;6.786;2023-07-16T10:22:46;26.40;99.90
10583;DHT22;33679;51.218;6.786;2023-07-16T10:25:23;26.50;99.90
10583;DHT22;33679;51.218;6.786;2023-07-16T10:27:57;26.60;99.90
10583;DHT22;33679;51.218;6.786;2023-07-16T10:30:31;26.70;99.90
10583;DHT22;33679;51.218;6.786;2023-07-16T10:33:11;26.80;99.90
10583;DHT22;33679;51.218;6.786;2023-07-16T10:35:45;26.80;99.90
10583;DHT22;33679;51.218;6.786;2023-07-16T10:38:18;26.90;99.90
10583;DHT22;33679;51.218;6.786;2023-07-16T10:40:50;26.90;99.90
10583;DHT22;33679;51.218;6.786;2023-07-16T10:43:27;26.90;99.90
10583;DHT22;33679;51.218;6.786;2023-07-16T10:46:04;26.90;99.90
10583;DHT22;33679;51.218;6.786;2023-07-16T10:48:36;26.80;99.80
10583;DHT22;33679;51.218;6.786;2023-07-16T10:51:14;26.70;99.70
10583;DHT22;33679;51.218;6.786;2023-07-16T10:53:46;26.70;99.90
10583;DHT22;33679;51.218;6.786;2023-07-16T10:56:20;26.60;99.90
10583;DHT22;33679;51.218;6.786;2023-07-16T10:58:54;26.60;99.80
10583;DHT22;33679;51.218;6.786;2023-07-16T11:01:29;26.60;99.80
10583;DHT22;33679;51.218;6.786;2023-07-16T11:04:08;26.70;99.60
10583;DHT22;33679;51.218;6.786;2023-07-16T11:06:40;26.80;99.50
10583;DHT22;33679;51.218;6.786;2023-07-16T11:09:12;26.70;99.50
10583;DHT22;33679;51.218;6.786;2023-07-16T11:11:45;26.80;99.50
10583;DHT22;33679;51.218;6.786;2023-07-16T11:14:19;26.80;99.50
10583;DHT22;33679;51.218;6.786;2023-07-16T11:16:51;26.80;99.50
10583;DHT22;33679;51.218;6.786;2023-07-16T11:19:23;26.90;99.40
10583;DHT22;33679;51.218;6.786;2023-07-16T11:21:56;26.90;99.00
10583;DHT22;33679;51.218;6.786;2023-07-16T11:24:36;26.90;99.10
10583;DHT22;33679;51.218;6.786;2023-07-16T11:27:15;26.90;99.00
10583;DHT22;33679;51.218;6.786;2023-07-16T11:29:50;27.00;99.00
10583;DHT22;33679;51.218;6.786;2023-07-16T11:32:31;27.00;99.10
10583;DHT22;33679;51.218;6.786;2023-07-16T11:35:05;27.10;99.20
10583;DHT22;33679;51.218;6.786;2023-07-16T11:37:38;27.10;98.60
10583;DHT22;33679;51.218;6.786;2023-07-16T11:40:16;27.10;98.60
10583;DHT22;33679;51.218;6.786;2023-07-16T11:42:48;27.20;98.50
10583;DHT22;33679;51.218;6.786;2023-07-16T11:45:24;27.20;98.70
10583;DHT22;33679;51.218;6.786;2023-07-16T11:48:00;27.20;98.60
10583;DHT22;33679;51.218;6.786;2023-07-16T11:50:36;27.20;98.30
10583;DHT22;33679;51.218;6.786;2023-07-16T11:53:09;27.10;98.60
10583;DHT22;33679;51.218;6.786;2023-07-16T11:55:41;27.10;98.60
10583;DHT22;33679;51.218;6.786;2023-07-16T11:58:13;27.10;98.60
10583;DHT22;33679;51.218;6.786;2023-07-16T12:00:47;27.10;98.60
10583;DHT22;33679;51.218;6.786;2023-07-16T12:03:19;27.10;98.90
10583;DHT22;33679;51.218;6.786;2023-07-16T12:05:51;27.10;98.80
10583;DHT22;33679;51.218;6.786;2023-07-16T12:08:24;27.10;98.90
10583;DHT22;33679;51.218;6.786;2023-07-16T12:10:56;27.10;98.80
10583;DHT22;33679;51.218;6.786;2023-07-16T12:13:29;27.10;98.80
10583;DHT22;33679;51.218;6.786;2023-07-16T12:16:04;27.20;98.80
10583;DHT22;33679;51.218;6.786;2023-07-16T12:18:36;27.30;98.90
10583;DHT22;33679;51.218;6.786;2023-07-16T12:21:11;27.30;98.60
10583;DHT22;33679;51.218;6.786;2023-07-16T12:23:43;27.30;98.20
10583;DHT22;33679;51.218;6.786;2023-07-16T12:26:18;27.30;98.10
10583;DHT22;33679;51.218;6.786;2023-07-16T12:28:53;27.30;98.00
10583;DHT22;33679;51.218;6.786;2023-07-16T12:31:27;27.30;98.10
10583;DHT22;33679;51.218;6.786;2023-07-16T12:33:59;27.30;98.20
10583;DHT22;33679;51.218;6.786;2023-07-16T12:36:32;27.40;98.20
10583;DHT22;33679;51.218;6.786;2023-07-16T12:39:04;27.40;98.20
10583;DHT22;33679;51.218;6.786;2023-07-16T12:41:37;27.50;98.10
10583;DHT22;33679;51.218;6.786;2023-07-16T12:44:11;27.50;97.90
10583;DHT22;33679;51.218;6.786;2023-07-16T12:46:45;27.60;97.90
10583;DHT22;33679;51.218;6.786;2023-07-16T12:49:19;27.80;98.00
10583;DHT22;33679;51.218;6.786;2023-07-16T12:51:51;27.80;97.40
10583;DHT22;33679;51.218;6.786;2023-07-16T12:54:24;27.80;97.30
10583;DHT22;33679;51.218;6.786;2023-07-16T12:56:56;27.80;97.20
10583;DHT22;33679;51.218;6.786;2023-07-16T12:59:29;27.80;97.20
10583;DHT22;33679;51.218;6.786;2023-07-16T13:02:05;27.70;97.20
10583;DHT22;33679;51.218;6.786;2023-07-16T13:04:39;27.60;97.10
10583;DHT22;33679;51.218;6.786;2023-07-16T13:07:14;27.50;97.10
10583;DHT22;33679;51.218;6.786;2023-07-16T13:09:48;27.60;97.10
10583;DHT22;33679;51.218;6.786;2023-07-16T13:12:21;27.50;97.10
10583;DHT22;33679;51.218;6.786;2023-07-16T13:14:53;27.40;97.30
10583;DHT22;33679;51.218;6.786;2023-07-16T13:17:27;27.50;97.10
10583;DHT22;33679;51.218;6.786;2023-07-16T13:19:59;27.40;97.10
10583;DHT22;33679;51.218;6.786;2023-07-16T13:22:32;27.40;97.20
10583;DHT22;33679;51.218;6.786;2023-07-16T13:25:05;27.40;97.30
10583;DHT22;33679;51.218;6.786;2023-07-16T13:27:38;27.50;97.30
10583;DHT22;33679;51.218;6.786;2023-07-16T13:30:11;27.50;97.10
10583;DHT22;33679;51.218;6.786;2023-07-16T13:32:48;27.60;97.10
10583;DHT22;33679;51.218;6.786;2023-07-16T13:35:24;27.70;96.90
10583;DHT22;33679;51.218;6.786;2023-07-16T13:37:58;27.70;96.90
10583;DHT22;33679;51.218;6.786;2023-07-16T13:40:31;27.70;96.80
10583;DHT22;33679;51.218;6.786;2023-07-16T13:43:04;27.80;96.70
10583;DHT22;33679;51.218;6.786;2023-07-16T13:45:41;27.90;96.80
10583;DHT22;33679;51.218;6.786;2023-07-16T13:48:15;27.80;96.60
10583;DHT22;33679;51.218;6.786;2023-07-16T13:50:47;27.90;96.40
10583;DHT22;33679;51.218;6.786;2023-07-16T13:53:19;27.90;96.40
10583;DHT22;33679;51.218;6.786;2023-07-16T13:55:52;28.00;96.80
10583;DHT22;33679;51.218;6.786;2023-07-16T13:58:25;28.00;96.90
10583;DHT22;33679;51.218;6.786;2023-07-16T14:00:59;28.10;97.10
10583;DHT22;33679;51.218;6.786;2023-07-16T14:03:35;28.10;97.10
10583;DHT22;33679;51.218;6.786;2023-07-16T14:06:07;28.20;97.00
10583;DHT22;33679;51.218;6.786;2023-07-16T14:08:40;28.20;97.00
10583;DHT22;33679;51.218;6.786;2023-07-16T14:11:12;28.20;96.60
10583;DHT22;33679;51.218;6.786;2023-07-16T14:13:57;28.10;96.10
10583;DHT22;33679;51.218;6.786;2023-07-16T14:23:33;28.60;96.10
10583;DHT22;33679;51.218;6.786;2023-07-16T14:26:05;28.70;95.90
10583;DHT22;33679;51.218;6.786;2023-07-16T14:28:37;28.60;95.80
10583;DHT22;33679;51.218;6.786;2023-07-16T14:31:10;28.60;95.60
10583;DHT22;33679;51.218;6.786;2023-07-16T14:33:42;28.60;95.60
10583;DHT22;33679;51.218;6.786;2023-07-16T14:36:14;28.50;95.80
10583;DHT22;33679;51.218;6.786;2023-07-16T14:38:52;28.40;95.70
10583;DHT22;33679;51.218;6.786;2023-07-16T14:41:24;28.50;95.70
10583;DHT22;33679;51.218;6.786;2023-07-16T14:43:59;28.40;95.80
10583;DHT22;33679;51.218;6.786;2023-07-16T14:46:31;28.40;96.10
10583;DHT22;33679;51.218;6.786;2023-07-16T14:49:03;28.40;96.50
10583;DHT22;33679;51.218;6.786;2023-07-16T14:51:37;28.40;96.20
10583;DHT22;33679;51.218;6.786;2023-07-16T14:54:12;28.40;96.10
10583;DHT22;33679;51.218;6.786;2023-07-16T14:56:44;28.40;95.80
10583;DHT22;33679;51.218;6.786;2023-07-16T14:59:17;28.40;95.70
10583;DHT22;33679;51.218;6.786;2023-07-16T15:01:49;28.40;95.60
10583;DHT22;33679;51.218;6.786;2023-07-16T15:04:22;28.30;95.70
10583;DHT22;33679;51.218;6.786;2023-07-16T15:06:54;28.20;95.70
10583;DHT22;33679;51.218;6.786;2023-07-16T15:09:28;28.10;95.70
10583;DHT22;33679;51.218;6.786;2023-07-16T15:12:01;28.00;96.00
10583;DHT22;33679;51.218;6.786;2023-07-16T15:14:33;27.90;96.20
10583;DHT22;33679;51.218;6.786;2023-07-16T15:17:07;27.90;96.20
10583;DHT22;33679;51.218;6.786;2023-07-16T15:19:39;27.90;96.40
10583;DHT22;33679;51.218;6.786;2023-07-16T15:22:12;27.90;96.50
10583;DHT22;33679;51.218;6.786;2023-07-16T15:24:49;27.90;96.50
10583;DHT22;33679;51.218;6.786;2023-07-16T15:27:21;28.00;96.50
10583;DHT22;33679;51.218;6.786;2023-07-16T15:29:54;28.00;96.30
10583;DHT22;33679;51.218;6.786;2023-07-16T15:32:29;28.00;96.30
10583;DHT22;33679;51.218;6.786;2023-07-16T15:35:04;28.00;96.40
10583;DHT22;33679;51.218;6.786;2023-07-16T15:37:37;28.10;96.40
10583;DHT22;33679;51.218;6.786;2023-07-16T15:40:15;28.20;96.50
10583;DHT22;33679;51.218;6.786;2023-07-16T15:42:47;28.20;96.20
10583;DHT22;33679;51.218;6.786;2023-07-16T15:45:22;28.20;96.00
10583;DHT22;33679;51.218;6.786;2023-07-16T15:47:55;28.20;95.90
10583;DHT22;33679;51.218;6.786;2023-07-16T15:50:29;28.10;96.00
10583;DHT22;33679;51.218;6.786;2023-07-16T15:53:02;28.10;96.10
10583;DHT22;33679;51.218;6.786;2023-07-16T15:55:35;28.10;96.10
10583;DHT22;33679;51.218;6.786;2023-07-16T15:58:09;28.10;96.30
10583;DHT22;33679;51.218;6.786;2023-07-16T16:00:43;28.00;96.30
10583;DHT22;33679;51.218;6.786;2023-07-16T16:03:16;28.00;96.40
10583;DHT22;33679;51.218;6.786;2023-07-16T16:05:49;28.00;96.50
10583;DHT22;33679;51.218;6.786;2023-07-16T16:08:21;28.00;96.60
10583;DHT22;33679;51.218;6.786;2023-07-16T16:10:55;27.90;96.60
10583;DHT22;33679;51.218;6.786;2023-07-16T16:13:28;28.00;96.80
10583;DHT22;33679;51.218;6.786;2023-07-16T16:16:00;28.00;96.70
10583;DHT22;33679;51.218;6.786;2023-07-16T16:18:32;28.10;96.70